<?xml version="1.0" encoding="utf-8"?>
<gpx xmlns:xsi="http://www.w3.org/2001/XMLSchema-instance" xmlns:xsd="http://www.w3.org/2001/XMLSchema" version="1.1" creator="Shapelink.com" xmlns="http://www.topografix.com/GPX/1/1" xmlns:gpxtpx="http://www.garmin.com/xmlschemas/TrackPointExtension/v1">
  <metadata>
    <name>Løping 5.42 km, 2018-04-14</name>
    <desc></desc>
    <author><name>Henrik Staffas</name></author> 
    <time>2018-04-14T09:56:49Z</time>
  </metadata>
  <trk>
    <name>Løping 5.42 km, 2018-04-14</name>
    <trkseg>
      <trkpt lat="59.450993133836" lon="17.969461967547">
        <ele>25</ele>
        <time>2018-04-14T09:56:49Z</time>
      </trkpt>
      <trkpt lat="59.450948290671" lon="17.969497003889">
        <ele>24.8</ele>
        <time>2018-04-14T09:56:52Z</time>
      </trkpt>
      <trkpt lat="59.450872602114" lon="17.969582331631">
        <ele>26</ele>
        <time>2018-04-14T09:56:57Z</time>
      </trkpt>
      <trkpt lat="59.450840499437" lon="17.969650727935">
        <ele>27.2</ele>
        <time>2018-04-14T09:57:00Z</time>
      </trkpt>
      <trkpt lat="59.450799428127" lon="17.969790538027">
        <ele>28.4</ele>
        <time>2018-04-14T09:57:04Z</time>
      </trkpt>
      <trkpt lat="59.450769420925" lon="17.969869746982">
        <ele>29.6</ele>
        <time>2018-04-14T09:57:06Z</time>
      </trkpt>
      <trkpt lat="59.45073715061" lon="17.969953817439">
        <ele>30.8</ele>
        <time>2018-04-14T09:57:08Z</time>
      </trkpt>
      <trkpt lat="59.45068266826" lon="17.970125981665">
        <ele>32</ele>
        <time>2018-04-14T09:57:12Z</time>
      </trkpt>
      <trkpt lat="59.450662384062" lon="17.970319352098">
        <ele>33.2</ele>
        <time>2018-04-14T09:57:16Z</time>
      </trkpt>
      <trkpt lat="59.450633885602" lon="17.970455893249">
        <ele>34</ele>
        <time>2018-04-14T09:57:19Z</time>
      </trkpt>
      <trkpt lat="59.450492985863" lon="17.970704416584">
        <ele>33.2</ele>
        <time>2018-04-14T09:57:26Z</time>
      </trkpt>
      <trkpt lat="59.45042450574" lon="17.970850513101">
        <ele>33</ele>
        <time>2018-04-14T09:57:29Z</time>
      </trkpt>
      <trkpt lat="59.450294502471" lon="17.971103562662">
        <ele>32.4</ele>
        <time>2018-04-14T09:57:35Z</time>
      </trkpt>
      <trkpt lat="59.450230967669" lon="17.971222250366">
        <ele>32.2</ele>
        <time>2018-04-14T09:57:38Z</time>
      </trkpt>
      <trkpt lat="59.450178329337" lon="17.971377064059">
        <ele>32</ele>
        <time>2018-04-14T09:57:41Z</time>
      </trkpt>
      <trkpt lat="59.450109765395" lon="17.971596669839">
        <ele>32.6</ele>
        <time>2018-04-14T09:57:45Z</time>
      </trkpt>
      <trkpt lat="59.450077159804" lon="17.971774449938">
        <ele>33.4</ele>
        <time>2018-04-14T09:57:49Z</time>
      </trkpt>
      <trkpt lat="59.449970458217" lon="17.972128333756">
        <ele>33.8</ele>
        <time>2018-04-14T09:57:56Z</time>
      </trkpt>
      <trkpt lat="59.449892171271" lon="17.972465034679">
        <ele>33.4</ele>
        <time>2018-04-14T09:58:02Z</time>
      </trkpt>
      <trkpt lat="59.44986962396" lon="17.972576765406">
        <ele>33.4</ele>
        <time>2018-04-14T09:58:04Z</time>
      </trkpt>
      <trkpt lat="59.449806172977" lon="17.972952190707">
        <ele>32.4</ele>
        <time>2018-04-14T09:58:11Z</time>
      </trkpt>
      <trkpt lat="59.449802987855" lon="17.973014049129">
        <ele>32.2</ele>
        <time>2018-04-14T09:58:12Z</time>
      </trkpt>
      <trkpt lat="59.449805334787" lon="17.973399197434">
        <ele>31.8</ele>
        <time>2018-04-14T09:58:19Z</time>
      </trkpt>
      <trkpt lat="59.44979502505" lon="17.973585694709">
        <ele>31.4</ele>
        <time>2018-04-14T09:58:22Z</time>
      </trkpt>
      <trkpt lat="59.449785134408" lon="17.973718296367">
        <ele>31.2</ele>
        <time>2018-04-14T09:58:24Z</time>
      </trkpt>
      <trkpt lat="59.449765185486" lon="17.974084585397">
        <ele>30.8</ele>
        <time>2018-04-14T09:58:30Z</time>
      </trkpt>
      <trkpt lat="59.449756133034" lon="17.974314417095">
        <ele>30</ele>
        <time>2018-04-14T09:58:34Z</time>
      </trkpt>
      <trkpt lat="59.449686479445" lon="17.974642065566">
        <ele>29.4</ele>
        <time>2018-04-14T09:58:41Z</time>
      </trkpt>
      <trkpt lat="59.449658735356" lon="17.974752874284">
        <ele>29</ele>
        <time>2018-04-14T09:58:43Z</time>
      </trkpt>
      <trkpt lat="59.449560080393" lon="17.975100304039">
        <ele>28.4</ele>
        <time>2018-04-14T09:58:49Z</time>
      </trkpt>
      <trkpt lat="59.449548429552" lon="17.975155708398">
        <ele>28.6</ele>
        <time>2018-04-14T09:58:50Z</time>
      </trkpt>
      <trkpt lat="59.449507777337" lon="17.975518560849">
        <ele>28.4</ele>
        <time>2018-04-14T09:58:56Z</time>
      </trkpt>
      <trkpt lat="59.449508615527" lon="17.975602044573">
        <ele>28.2</ele>
        <time>2018-04-14T09:58:58Z</time>
      </trkpt>
      <trkpt lat="59.44951506959" lon="17.975678822777">
        <ele>28</ele>
        <time>2018-04-14T09:59:00Z</time>
      </trkpt>
      <trkpt lat="59.449507693518" lon="17.976077801217">
        <ele>28.4</ele>
        <time>2018-04-14T09:59:07Z</time>
      </trkpt>
      <trkpt lat="59.449512974115" lon="17.976438558193">
        <ele>28.4</ele>
        <time>2018-04-14T09:59:14Z</time>
      </trkpt>
      <trkpt lat="59.449477015764" lon="17.976841308488">
        <ele>28.6</ele>
        <time>2018-04-14T09:59:20Z</time>
      </trkpt>
      <trkpt lat="59.449541388756" lon="17.977187648596">
        <ele>28.4</ele>
        <time>2018-04-14T09:59:25Z</time>
      </trkpt>
      <trkpt lat="59.449575670727" lon="17.977513117773">
        <ele>28</ele>
        <time>2018-04-14T09:59:31Z</time>
      </trkpt>
      <trkpt lat="59.449529989372" lon="17.977778488727">
        <ele>29</ele>
        <time>2018-04-14T09:59:37Z</time>
      </trkpt>
      <trkpt lat="59.449417085179" lon="17.978085182448">
        <ele>28</ele>
        <time>2018-04-14T09:59:44Z</time>
      </trkpt>
      <trkpt lat="59.449391688022" lon="17.978132456364">
        <ele>27.8</ele>
        <time>2018-04-14T09:59:45Z</time>
      </trkpt>
      <trkpt lat="59.449251291197" lon="17.978313756861">
        <ele>26.6</ele>
        <time>2018-04-14T09:59:50Z</time>
      </trkpt>
      <trkpt lat="59.449074768383" lon="17.978476114264">
        <ele>25.6</ele>
        <time>2018-04-14T09:59:56Z</time>
      </trkpt>
      <trkpt lat="59.448913332989" lon="17.978648194671">
        <ele>24.8</ele>
        <time>2018-04-14T10:00:02Z</time>
      </trkpt>
      <trkpt lat="59.448793639457" lon="17.978783646175">
        <ele>24.6</ele>
        <time>2018-04-14T10:00:07Z</time>
      </trkpt>
      <trkpt lat="59.448631282054" lon="17.979017249728">
        <ele>24</ele>
        <time>2018-04-14T10:00:14Z</time>
      </trkpt>
      <trkpt lat="59.448457441448" lon="17.979188575764">
        <ele>24.4</ele>
        <time>2018-04-14T10:00:22Z</time>
      </trkpt>
      <trkpt lat="59.448263735739" lon="17.979250350367">
        <ele>24.6</ele>
        <time>2018-04-14T10:00:31Z</time>
      </trkpt>
      <trkpt lat="59.448077489921" lon="17.979348418597">
        <ele>23.6</ele>
        <time>2018-04-14T10:00:38Z</time>
      </trkpt>
      <trkpt lat="59.448043124131" lon="17.979369289528">
        <ele>23.6</ele>
        <time>2018-04-14T10:00:39Z</time>
      </trkpt>
      <trkpt lat="59.447922424771" lon="17.979410863752">
        <ele>22.4</ele>
        <time>2018-04-14T10:00:43Z</time>
      </trkpt>
      <trkpt lat="59.447798959384" lon="17.979491749087">
        <ele>21.8</ele>
        <time>2018-04-14T10:00:47Z</time>
      </trkpt>
      <trkpt lat="59.447601146544" lon="17.979513542027">
        <ele>22</ele>
        <time>2018-04-14T10:00:54Z</time>
      </trkpt>
      <trkpt lat="59.447418840219" lon="17.979497029684">
        <ele>22.6</ele>
        <time>2018-04-14T10:01:00Z</time>
      </trkpt>
      <trkpt lat="59.44730895351" lon="17.979485211205">
        <ele>23.6</ele>
        <time>2018-04-14T10:01:04Z</time>
      </trkpt>
      <trkpt lat="59.447260506128" lon="17.979477835133">
        <ele>24.4</ele>
        <time>2018-04-14T10:01:06Z</time>
      </trkpt>
      <trkpt lat="59.44723603098" lon="17.979488480146">
        <ele>24.6</ele>
        <time>2018-04-14T10:01:07Z</time>
      </trkpt>
      <trkpt lat="59.447045594212" lon="17.979512955294">
        <ele>25.8</ele>
        <time>2018-04-14T10:01:14Z</time>
      </trkpt>
      <trkpt lat="59.446855744177" lon="17.979710516677">
        <ele>26</ele>
        <time>2018-04-14T10:01:20Z</time>
      </trkpt>
      <trkpt lat="59.446709563841" lon="17.979931295923">
        <ele>26.2</ele>
        <time>2018-04-14T10:01:24Z</time>
      </trkpt>
      <trkpt lat="59.446597497838" lon="17.980092228403">
        <ele>27</ele>
        <time>2018-04-14T10:01:30Z</time>
      </trkpt>
      <trkpt lat="59.446464309447" lon="17.980338237168">
        <ele>27</ele>
        <time>2018-04-14T10:01:38Z</time>
      </trkpt>
      <trkpt lat="59.446333719445" lon="17.980595980593">
        <ele>27.2</ele>
        <time>2018-04-14T10:01:45Z</time>
      </trkpt>
      <trkpt lat="59.44629809637" lon="17.980637387179">
        <ele>27.4</ele>
        <time>2018-04-14T10:01:47Z</time>
      </trkpt>
      <trkpt lat="59.446267837711" lon="17.980663957802">
        <ele>28</ele>
        <time>2018-04-14T10:01:49Z</time>
      </trkpt>
      <trkpt lat="59.44623020298" lon="17.980682062706">
        <ele>28.4</ele>
        <time>2018-04-14T10:01:52Z</time>
      </trkpt>
      <trkpt lat="59.446024175878" lon="17.980605368321">
        <ele>28.8</ele>
        <time>2018-04-14T10:02:01Z</time>
      </trkpt>
      <trkpt lat="59.445879169008" lon="17.980575025843">
        <ele>29.2</ele>
        <time>2018-04-14T10:02:06Z</time>
      </trkpt>
      <trkpt lat="59.44571974527" lon="17.9804914583">
        <ele>30.4</ele>
        <time>2018-04-14T10:02:12Z</time>
      </trkpt>
      <trkpt lat="59.445692168819" lon="17.980492212671">
        <ele>30.4</ele>
        <time>2018-04-14T10:02:13Z</time>
      </trkpt>
      <trkpt lat="59.445574151667" lon="17.980484333685">
        <ele>31.6</ele>
        <time>2018-04-14T10:02:18Z</time>
      </trkpt>
      <trkpt lat="59.445489829753" lon="17.980466144962">
        <ele>32.8</ele>
        <time>2018-04-14T10:02:21Z</time>
      </trkpt>
      <trkpt lat="59.445291681637" lon="17.980470252093">
        <ele>33.6</ele>
        <time>2018-04-14T10:02:28Z</time>
      </trkpt>
      <trkpt lat="59.445249269223" lon="17.980464217125">
        <ele>34</ele>
        <time>2018-04-14T10:02:30Z</time>
      </trkpt>
      <trkpt lat="59.445101580145" lon="17.980402526341">
        <ele>35</ele>
        <time>2018-04-14T10:02:36Z</time>
      </trkpt>
      <trkpt lat="59.4450802063" lon="17.980387606559">
        <ele>35</ele>
        <time>2018-04-14T10:02:37Z</time>
      </trkpt>
      <trkpt lat="59.444889601894" lon="17.98026430881">
        <ele>36</ele>
        <time>2018-04-14T10:02:44Z</time>
      </trkpt>
      <trkpt lat="59.444864120918" lon="17.980246790639">
        <ele>36.2</ele>
        <time>2018-04-14T10:02:45Z</time>
      </trkpt>
      <trkpt lat="59.444836041553" lon="17.98024335406">
        <ele>36.4</ele>
        <time>2018-04-14T10:02:46Z</time>
      </trkpt>
      <trkpt lat="59.444658093816" lon="17.980128102935">
        <ele>37.2</ele>
        <time>2018-04-14T10:02:53Z</time>
      </trkpt>
      <trkpt lat="59.444478218242" lon="17.979955603433">
        <ele>37.4</ele>
        <time>2018-04-14T10:03:01Z</time>
      </trkpt>
      <trkpt lat="59.444301443971" lon="17.979847644561">
        <ele>37.6</ele>
        <time>2018-04-14T10:03:09Z</time>
      </trkpt>
      <trkpt lat="59.444209913623" lon="17.979811770029">
        <ele>38</ele>
        <time>2018-04-14T10:03:13Z</time>
      </trkpt>
      <trkpt lat="59.44414227169" lon="17.979775560221">
        <ele>38.4</ele>
        <time>2018-04-14T10:03:16Z</time>
      </trkpt>
      <trkpt lat="59.443957199338" lon="17.979599959416">
        <ele>38</ele>
        <time>2018-04-14T10:03:24Z</time>
      </trkpt>
      <trkpt lat="59.443760308507" lon="17.979468447405">
        <ele>38.4</ele>
        <time>2018-04-14T10:03:29Z</time>
      </trkpt>
      <trkpt lat="59.443575403793" lon="17.979376749419">
        <ele>38.6</ele>
        <time>2018-04-14T10:03:36Z</time>
      </trkpt>
      <trkpt lat="59.443473060794" lon="17.979371049727">
        <ele>39.6</ele>
        <time>2018-04-14T10:03:41Z</time>
      </trkpt>
      <trkpt lat="59.443432995312" lon="17.979375911229">
        <ele>40.8</ele>
        <time>2018-04-14T10:03:44Z</time>
      </trkpt>
      <trkpt lat="59.443397539875" lon="17.979415725254">
        <ele>41.6</ele>
        <time>2018-04-14T10:03:46Z</time>
      </trkpt>
      <trkpt lat="59.443384296473" lon="17.979435506538">
        <ele>42</ele>
        <time>2018-04-14T10:03:47Z</time>
      </trkpt>
      <trkpt lat="59.443356217108" lon="17.979484456834">
        <ele>42.4</ele>
        <time>2018-04-14T10:03:49Z</time>
      </trkpt>
      <trkpt lat="59.443320594033" lon="17.979551260577">
        <ele>42.8</ele>
        <time>2018-04-14T10:03:51Z</time>
      </trkpt>
      <trkpt lat="59.443279941818" lon="17.979607335488">
        <ele>43.2</ele>
        <time>2018-04-14T10:03:53Z</time>
      </trkpt>
      <trkpt lat="59.443145831418" lon="17.97986784494">
        <ele>43.6</ele>
        <time>2018-04-14T10:04:00Z</time>
      </trkpt>
      <trkpt lat="59.443009206448" lon="17.980167330227">
        <ele>43</ele>
        <time>2018-04-14T10:04:07Z</time>
      </trkpt>
      <trkpt lat="59.442955227012" lon="17.980293142546">
        <ele>42</ele>
        <time>2018-04-14T10:04:10Z</time>
      </trkpt>
      <trkpt lat="59.442820110784" lon="17.980588353064">
        <ele>41</ele>
        <time>2018-04-14T10:04:17Z</time>
      </trkpt>
      <trkpt lat="59.442702764184" lon="17.98082086697">
        <ele>40</ele>
        <time>2018-04-14T10:04:23Z</time>
      </trkpt>
      <trkpt lat="59.442595475864" lon="17.98111758623">
        <ele>39</ele>
        <time>2018-04-14T10:04:30Z</time>
      </trkpt>
      <trkpt lat="59.442554991287" lon="17.981194951167">
        <ele>38.8</ele>
        <time>2018-04-14T10:04:32Z</time>
      </trkpt>
      <trkpt lat="59.442443679655" lon="17.981354039629">
        <ele>37.6</ele>
        <time>2018-04-14T10:04:38Z</time>
      </trkpt>
      <trkpt lat="59.442302360821" lon="17.981505165286">
        <ele>36.6</ele>
        <time>2018-04-14T10:04:44Z</time>
      </trkpt>
      <trkpt lat="59.442237736372" lon="17.981578339273">
        <ele>35.6</ele>
        <time>2018-04-14T10:04:46Z</time>
      </trkpt>
      <trkpt lat="59.44217587795" lon="17.981650926527">
        <ele>34.4</ele>
        <time>2018-04-14T10:04:48Z</time>
      </trkpt>
      <trkpt lat="59.442120725048" lon="17.98172443579">
        <ele>33.2</ele>
        <time>2018-04-14T10:04:50Z</time>
      </trkpt>
      <trkpt lat="59.442043863025" lon="17.981835244508">
        <ele>32.2</ele>
        <time>2018-04-14T10:04:53Z</time>
      </trkpt>
      <trkpt lat="59.441904639666" lon="17.98209575396">
        <ele>31</ele>
        <time>2018-04-14T10:05:02Z</time>
      </trkpt>
      <trkpt lat="59.44178863417" lon="17.982371769927">
        <ele>30.6</ele>
        <time>2018-04-14T10:05:09Z</time>
      </trkpt>
      <trkpt lat="59.441648488802" lon="17.982612498095">
        <ele>30.8</ele>
        <time>2018-04-14T10:05:15Z</time>
      </trkpt>
      <trkpt lat="59.441491411996" lon="17.98287443247">
        <ele>30.4</ele>
        <time>2018-04-14T10:05:22Z</time>
      </trkpt>
      <trkpt lat="59.441445730641" lon="17.982945259525">
        <ele>30</ele>
        <time>2018-04-14T10:05:24Z</time>
      </trkpt>
      <trkpt lat="59.441308938033" lon="17.983193699041">
        <ele>29</ele>
        <time>2018-04-14T10:05:31Z</time>
      </trkpt>
      <trkpt lat="59.44116753538" lon="17.983432247915">
        <ele>29</ele>
        <time>2018-04-14T10:05:37Z</time>
      </trkpt>
      <trkpt lat="59.440991096385" lon="17.983617571724">
        <ele>29</ele>
        <time>2018-04-14T10:05:43Z</time>
      </trkpt>
      <trkpt lat="59.4408054373" lon="17.983801722067">
        <ele>28.8</ele>
        <time>2018-04-14T10:05:51Z</time>
      </trkpt>
      <trkpt lat="59.440649785417" lon="17.984055190723">
        <ele>28.8</ele>
        <time>2018-04-14T10:05:59Z</time>
      </trkpt>
      <trkpt lat="59.440485081082" lon="17.984201035783">
        <ele>29.4</ele>
        <time>2018-04-14T10:06:04Z</time>
      </trkpt>
      <trkpt lat="59.440304032042" lon="17.984361046254">
        <ele>28.6</ele>
        <time>2018-04-14T10:06:10Z</time>
      </trkpt>
      <trkpt lat="59.440249214416" lon="17.984432292404">
        <ele>27.8</ele>
        <time>2018-04-14T10:06:12Z</time>
      </trkpt>
      <trkpt lat="59.440210573857" lon="17.984512171911">
        <ele>26.6</ele>
        <time>2018-04-14T10:06:14Z</time>
      </trkpt>
      <trkpt lat="59.440152906385" lon="17.984621388068">
        <ele>25.4</ele>
        <time>2018-04-14T10:06:17Z</time>
      </trkpt>
      <trkpt lat="59.440072356326" lon="17.984766478757">
        <ele>24.4</ele>
        <time>2018-04-14T10:06:20Z</time>
      </trkpt>
      <trkpt lat="59.439919219013" lon="17.985019863594">
        <ele>23.2</ele>
        <time>2018-04-14T10:06:26Z</time>
      </trkpt>
      <trkpt lat="59.439768931546" lon="17.985256149355">
        <ele>22.4</ele>
        <time>2018-04-14T10:06:32Z</time>
      </trkpt>
      <trkpt lat="59.439737164145" lon="17.985288671127">
        <ele>22.4</ele>
        <time>2018-04-14T10:06:33Z</time>
      </trkpt>
      <trkpt lat="59.439706402572" lon="17.985317672501">
        <ele>22.2</ele>
        <time>2018-04-14T10:06:34Z</time>
      </trkpt>
      <trkpt lat="59.43955904877" lon="17.985548677665">
        <ele>21.2</ele>
        <time>2018-04-14T10:06:39Z</time>
      </trkpt>
      <trkpt lat="59.439505320791" lon="17.985707095575">
        <ele>20.8</ele>
        <time>2018-04-14T10:06:42Z</time>
      </trkpt>
      <trkpt lat="59.439427033845" lon="17.986034911684">
        <ele>22</ele>
        <time>2018-04-14T10:06:49Z</time>
      </trkpt>
      <trkpt lat="59.439427285302" lon="17.986077910831">
        <ele>22</ele>
        <time>2018-04-14T10:06:50Z</time>
      </trkpt>
      <trkpt lat="59.439426950026" lon="17.986120323245">
        <ele>22.4</ele>
        <time>2018-04-14T10:06:51Z</time>
      </trkpt>
      <trkpt lat="59.439430470424" lon="17.986237334569">
        <ele>23.6</ele>
        <time>2018-04-14T10:06:54Z</time>
      </trkpt>
      <trkpt lat="59.439427201483" lon="17.986276310404">
        <ele>24</ele>
        <time>2018-04-14T10:06:55Z</time>
      </trkpt>
      <trkpt lat="59.439412281701" lon="17.986371780245">
        <ele>24.6</ele>
        <time>2018-04-14T10:06:57Z</time>
      </trkpt>
      <trkpt lat="59.439383364146" lon="17.986755671265">
        <ele>25.4</ele>
        <time>2018-04-14T10:07:04Z</time>
      </trkpt>
      <trkpt lat="59.439421920886" lon="17.987125145417">
        <ele>24.6</ele>
        <time>2018-04-14T10:07:10Z</time>
      </trkpt>
      <trkpt lat="59.439452179545" lon="17.987382972661">
        <ele>23.6</ele>
        <time>2018-04-14T10:07:15Z</time>
      </trkpt>
      <trkpt lat="59.439475900322" lon="17.987589335039">
        <ele>22.4</ele>
        <time>2018-04-14T10:07:19Z</time>
      </trkpt>
      <trkpt lat="59.439560641331" lon="17.987845318265">
        <ele>21.4</ele>
        <time>2018-04-14T10:07:23Z</time>
      </trkpt>
      <trkpt lat="59.439638257725" lon="17.988192077468">
        <ele>20.8</ele>
        <time>2018-04-14T10:07:28Z</time>
      </trkpt>
      <trkpt lat="59.439721406173" lon="17.988756598433">
        <ele>20.2</ele>
        <time>2018-04-14T10:07:37Z</time>
      </trkpt>
      <trkpt lat="59.439752000108" lon="17.989140405634">
        <ele>20.2</ele>
        <time>2018-04-14T10:07:43Z</time>
      </trkpt>
      <trkpt lat="59.439794915436" lon="17.989483979715">
        <ele>19.6</ele>
        <time>2018-04-14T10:07:49Z</time>
      </trkpt>
      <trkpt lat="59.439824755" lon="17.989873989522">
        <ele>19.6</ele>
        <time>2018-04-14T10:07:56Z</time>
      </trkpt>
      <trkpt lat="59.439811092503" lon="17.990270956306">
        <ele>20.4</ele>
        <time>2018-04-14T10:08:03Z</time>
      </trkpt>
      <trkpt lat="59.439794496341" lon="17.990673622782">
        <ele>20.2</ele>
        <time>2018-04-14T10:08:11Z</time>
      </trkpt>
      <trkpt lat="59.439805057535" lon="17.991053825766">
        <ele>21.4</ele>
        <time>2018-04-14T10:08:19Z</time>
      </trkpt>
      <trkpt lat="59.439858366419" lon="17.991335373787">
        <ele>21.8</ele>
        <time>2018-04-14T10:08:25Z</time>
      </trkpt>
      <trkpt lat="59.439911004751" lon="17.991721025006">
        <ele>20.8</ele>
        <time>2018-04-14T10:08:32Z</time>
      </trkpt>
      <trkpt lat="59.439924667248" lon="17.992092091719">
        <ele>21.4</ele>
        <time>2018-04-14T10:08:40Z</time>
      </trkpt>
      <trkpt lat="59.439979065779" lon="17.992317732467">
        <ele>22.4</ele>
        <time>2018-04-14T10:08:47Z</time>
      </trkpt>
      <trkpt lat="59.440049809015" lon="17.992421668027">
        <ele>23.6</ele>
        <time>2018-04-14T10:08:54Z</time>
      </trkpt>
      <trkpt lat="59.44022038068" lon="17.992587126733">
        <ele>24.2</ele>
        <time>2018-04-14T10:09:06Z</time>
      </trkpt>
      <trkpt lat="59.44034024185" lon="17.992676561606">
        <ele>24.6</ele>
        <time>2018-04-14T10:09:13Z</time>
      </trkpt>
      <trkpt lat="59.440528499324" lon="17.992815784965">
        <ele>24.8</ele>
        <time>2018-04-14T10:09:20Z</time>
      </trkpt>
      <trkpt lat="59.440701920835" lon="17.992966659165">
        <ele>24.2</ele>
        <time>2018-04-14T10:09:27Z</time>
      </trkpt>
      <trkpt lat="59.440902164426" lon="17.993118874469">
        <ele>24</ele>
        <time>2018-04-14T10:09:31Z</time>
      </trkpt>
      <trkpt lat="59.441036107188" lon="17.993229683187">
        <ele>23.6</ele>
        <time>2018-04-14T10:09:34Z</time>
      </trkpt>
      <trkpt lat="59.441137611997" lon="17.993346862149">
        <ele>22.2</ele>
        <time>2018-04-14T10:09:37Z</time>
      </trkpt>
      <trkpt lat="59.441222604463" lon="17.993445265655">
        <ele>20.8</ele>
        <time>2018-04-14T10:09:40Z</time>
      </trkpt>
      <trkpt lat="59.441334838104" lon="17.993562696074">
        <ele>19.6</ele>
        <time>2018-04-14T10:09:44Z</time>
      </trkpt>
      <trkpt lat="59.44152041337" lon="17.993699069587">
        <ele>18.6</ele>
        <time>2018-04-14T10:09:51Z</time>
      </trkpt>
      <trkpt lat="59.441532567125" lon="17.993708624953">
        <ele>18.6</ele>
        <time>2018-04-14T10:09:52Z</time>
      </trkpt>
      <trkpt lat="59.441628036966" lon="17.993746427322">
        <ele>19.6</ele>
        <time>2018-04-14T10:10:00Z</time>
      </trkpt>
      <trkpt lat="59.441781174279" lon="17.993827815571">
        <ele>21</ele>
        <time>2018-04-14T10:10:08Z</time>
      </trkpt>
      <trkpt lat="59.44196800683" lon="17.993928146914">
        <ele>21.4</ele>
        <time>2018-04-14T10:10:13Z</time>
      </trkpt>
      <trkpt lat="59.442154168829" lon="17.993993441915">
        <ele>21</ele>
        <time>2018-04-14T10:10:18Z</time>
      </trkpt>
      <trkpt lat="59.442262630615" lon="17.993996878494">
        <ele>19.6</ele>
        <time>2018-04-14T10:10:22Z</time>
      </trkpt>
      <trkpt lat="59.442372684962" lon="17.993982377807">
        <ele>18.4</ele>
        <time>2018-04-14T10:10:26Z</time>
      </trkpt>
      <trkpt lat="59.442501514765" lon="17.993917166625">
        <ele>17.4</ele>
        <time>2018-04-14T10:10:30Z</time>
      </trkpt>
      <trkpt lat="59.442669404222" lon="17.993777021257">
        <ele>16.6</ele>
        <time>2018-04-14T10:10:36Z</time>
      </trkpt>
      <trkpt lat="59.442835952575" lon="17.993632182025">
        <ele>17.6</ele>
        <time>2018-04-14T10:10:45Z</time>
      </trkpt>
      <trkpt lat="59.443023120402" lon="17.993498658358">
        <ele>17.8</ele>
        <time>2018-04-14T10:10:53Z</time>
      </trkpt>
      <trkpt lat="59.443204085623" lon="17.993434285366">
        <ele>16</ele>
        <time>2018-04-14T10:10:59Z</time>
      </trkpt>
      <trkpt lat="59.443320091119" lon="17.993391872952">
        <ele>14.8</ele>
        <time>2018-04-14T10:11:02Z</time>
      </trkpt>
      <trkpt lat="59.443523016918" lon="17.993265557719">
        <ele>14.2</ele>
        <time>2018-04-14T10:11:07Z</time>
      </trkpt>
      <trkpt lat="59.44369886918" lon="17.993034384917">
        <ele>14</ele>
        <time>2018-04-14T10:11:13Z</time>
      </trkpt>
      <trkpt lat="59.443722757595" lon="17.992993397426">
        <ele>13.8</ele>
        <time>2018-04-14T10:11:14Z</time>
      </trkpt>
      <trkpt lat="59.443873799433" lon="17.992737162743">
        <ele>14.6</ele>
        <time>2018-04-14T10:11:21Z</time>
      </trkpt>
      <trkpt lat="59.443893832174" lon="17.992696594347">
        <ele>14.8</ele>
        <time>2018-04-14T10:11:22Z</time>
      </trkpt>
      <trkpt lat="59.443969185455" lon="17.992544546681">
        <ele>16</ele>
        <time>2018-04-14T10:11:26Z</time>
      </trkpt>
      <trkpt lat="59.444054764654" lon="17.992256041683">
        <ele>17.2</ele>
        <time>2018-04-14T10:11:32Z</time>
      </trkpt>
      <trkpt lat="59.444152665246" lon="17.991921184778">
        <ele>18</ele>
        <time>2018-04-14T10:11:40Z</time>
      </trkpt>
      <trkpt lat="59.444173703815" lon="17.991837449597">
        <ele>18.4</ele>
        <time>2018-04-14T10:11:42Z</time>
      </trkpt>
      <trkpt lat="59.444275124805" lon="17.991684479922">
        <ele>19.6</ele>
        <time>2018-04-14T10:11:48Z</time>
      </trkpt>
      <trkpt lat="59.44433840815" lon="17.991620023111">
        <ele>20.8</ele>
        <time>2018-04-14T10:11:52Z</time>
      </trkpt>
      <trkpt lat="59.444522223217" lon="17.991498485561">
        <ele>21.4</ele>
        <time>2018-04-14T10:12:02Z</time>
      </trkpt>
      <trkpt lat="59.444606042217" lon="17.99148767291">
        <ele>21.8</ele>
        <time>2018-04-14T10:12:06Z</time>
      </trkpt>
      <trkpt lat="59.444736380762" lon="17.991441237184">
        <ele>22.8</ele>
        <time>2018-04-14T10:12:12Z</time>
      </trkpt>
      <trkpt lat="59.444827575834" lon="17.991437632967">
        <ele>24</ele>
        <time>2018-04-14T10:12:16Z</time>
      </trkpt>
      <trkpt lat="59.44497207979" lon="17.991436627139">
        <ele>25</ele>
        <time>2018-04-14T10:12:23Z</time>
      </trkpt>
      <trkpt lat="59.445029663443" lon="17.991428329058">
        <ele>26</ele>
        <time>2018-04-14T10:12:26Z</time>
      </trkpt>
      <trkpt lat="59.445061849939" lon="17.991420450072">
        <ele>26.8</ele>
        <time>2018-04-14T10:12:28Z</time>
      </trkpt>
      <trkpt lat="59.445076602083" lon="17.991429921619">
        <ele>27.4</ele>
        <time>2018-04-14T10:12:29Z</time>
      </trkpt>
      <trkpt lat="59.445111554606" lon="17.991441404822">
        <ele>28.2</ele>
        <time>2018-04-14T10:12:31Z</time>
      </trkpt>
      <trkpt lat="59.445129240415" lon="17.991457749527">
        <ele>28.6</ele>
        <time>2018-04-14T10:12:32Z</time>
      </trkpt>
      <trkpt lat="59.445198977823" lon="17.991559924888">
        <ele>29.6</ele>
        <time>2018-04-14T10:12:36Z</time>
      </trkpt>
      <trkpt lat="59.445234097984" lon="17.99162765064">
        <ele>29.8</ele>
        <time>2018-04-14T10:12:38Z</time>
      </trkpt>
      <trkpt lat="59.445308445437" lon="17.991845412402">
        <ele>30.6</ele>
        <time>2018-04-14T10:12:44Z</time>
      </trkpt>
      <trkpt lat="59.445380697415" lon="17.991938032397">
        <ele>31</ele>
        <time>2018-04-14T10:12:49Z</time>
      </trkpt>
      <trkpt lat="59.445476837808" lon="17.991981115363">
        <ele>32</ele>
        <time>2018-04-14T10:12:54Z</time>
      </trkpt>
      <trkpt lat="59.445689905706" lon="17.991992514747">
        <ele>32.2</ele>
        <time>2018-04-14T10:13:01Z</time>
      </trkpt>
      <trkpt lat="59.445886125985" lon="17.991985138675">
        <ele>32.2</ele>
        <time>2018-04-14T10:13:07Z</time>
      </trkpt>
      <trkpt lat="59.446038760384" lon="17.991969715979">
        <ele>33</ele>
        <time>2018-04-14T10:13:14Z</time>
      </trkpt>
      <trkpt lat="59.446091733992" lon="17.991947923039">
        <ele>33</ele>
        <time>2018-04-14T10:13:17Z</time>
      </trkpt>
      <trkpt lat="59.446368001416" lon="17.991967369047">
        <ele>30.8</ele>
        <time>2018-04-14T10:13:28Z</time>
      </trkpt>
      <trkpt lat="59.446511667182" lon="17.991953622731">
        <ele>29.8</ele>
        <time>2018-04-14T10:13:33Z</time>
      </trkpt>
      <trkpt lat="59.446667989617" lon="17.991886567531">
        <ele>28.8</ele>
        <time>2018-04-14T10:13:38Z</time>
      </trkpt>
      <trkpt lat="59.44685213996" lon="17.991802748531">
        <ele>28.2</ele>
        <time>2018-04-14T10:13:44Z</time>
      </trkpt>
      <trkpt lat="59.447028746593" lon="17.991659920955">
        <ele>28.4</ele>
        <time>2018-04-14T10:13:51Z</time>
      </trkpt>
      <trkpt lat="59.447203090113" lon="17.991503179425">
        <ele>28.2</ele>
        <time>2018-04-14T10:13:58Z</time>
      </trkpt>
      <trkpt lat="59.447287663484" lon="17.991430424533">
        <ele>27.6</ele>
        <time>2018-04-14T10:14:01Z</time>
      </trkpt>
      <trkpt lat="59.447474244578" lon="17.991278293048">
        <ele>26.8</ele>
        <time>2018-04-14T10:14:07Z</time>
      </trkpt>
      <trkpt lat="59.447621346923" lon="17.991015855759">
        <ele>27.4</ele>
        <time>2018-04-14T10:14:15Z</time>
      </trkpt>
      <trkpt lat="59.447652695229" lon="17.990926253248">
        <ele>27.8</ele>
        <time>2018-04-14T10:14:17Z</time>
      </trkpt>
      <trkpt lat="59.447736598048" lon="17.990587959764">
        <ele>28.4</ele>
        <time>2018-04-14T10:14:23Z</time>
      </trkpt>
      <trkpt lat="59.447851094802" lon="17.990273638514">
        <ele>28</ele>
        <time>2018-04-14T10:14:30Z</time>
      </trkpt>
      <trkpt lat="59.447952851068" lon="17.989955377771">
        <ele>28.4</ele>
        <time>2018-04-14T10:14:37Z</time>
      </trkpt>
      <trkpt lat="59.447977996768" lon="17.989680870546">
        <ele>28.8</ele>
        <time>2018-04-14T10:14:42Z</time>
      </trkpt>
      <trkpt lat="59.448040274285" lon="17.989292872395">
        <ele>27.6</ele>
        <time>2018-04-14T10:14:48Z</time>
      </trkpt>
      <trkpt lat="59.448103222354" lon="17.989176699261">
        <ele>26.4</ele>
        <time>2018-04-14T10:14:51Z</time>
      </trkpt>
      <trkpt lat="59.448151502098" lon="17.989119702341">
        <ele>25.4</ele>
        <time>2018-04-14T10:14:53Z</time>
      </trkpt>
      <trkpt lat="59.44825359364" lon="17.988988274149">
        <ele>24.2</ele>
        <time>2018-04-14T10:14:57Z</time>
      </trkpt>
      <trkpt lat="59.448358786485" lon="17.988864808762">
        <ele>23</ele>
        <time>2018-04-14T10:15:02Z</time>
      </trkpt>
      <trkpt lat="59.448525334838" lon="17.988716700589">
        <ele>22</ele>
        <time>2018-04-14T10:15:09Z</time>
      </trkpt>
      <trkpt lat="59.448690877363" lon="17.988530622409">
        <ele>21.8</ele>
        <time>2018-04-14T10:15:16Z</time>
      </trkpt>
      <trkpt lat="59.448862790132" lon="17.988324427669">
        <ele>22.6</ele>
        <time>2018-04-14T10:15:25Z</time>
      </trkpt>
      <trkpt lat="59.449045850828" lon="17.988164333379">
        <ele>21.2</ele>
        <time>2018-04-14T10:15:34Z</time>
      </trkpt>
      <trkpt lat="59.449221954547" lon="17.987995857189">
        <ele>21.2</ele>
        <time>2018-04-14T10:15:45Z</time>
      </trkpt>
      <trkpt lat="59.449299151846" lon="17.987870631603">
        <ele>21</ele>
        <time>2018-04-14T10:15:49Z</time>
      </trkpt>
      <trkpt lat="59.449341648079" lon="17.987804582231">
        <ele>20.6</ele>
        <time>2018-04-14T10:15:51Z</time>
      </trkpt>
      <trkpt lat="59.449465197285" lon="17.987537534897">
        <ele>20.4</ele>
        <time>2018-04-14T10:15:57Z</time>
      </trkpt>
      <trkpt lat="59.449546166439" lon="17.987135455154">
        <ele>20.6</ele>
        <time>2018-04-14T10:16:03Z</time>
      </trkpt>
      <trkpt lat="59.449614730381" lon="17.98680638176">
        <ele>19.6</ele>
        <time>2018-04-14T10:16:09Z</time>
      </trkpt>
      <trkpt lat="59.449678013726" lon="17.986704457856">
        <ele>18.6</ele>
        <time>2018-04-14T10:16:12Z</time>
      </trkpt>
      <trkpt lat="59.449778680345" lon="17.98663036186">
        <ele>17.6</ele>
        <time>2018-04-14T10:16:16Z</time>
      </trkpt>
      <trkpt lat="59.449997615573" lon="17.986560037719">
        <ele>17</ele>
        <time>2018-04-14T10:16:23Z</time>
      </trkpt>
      <trkpt lat="59.450215964068" lon="17.986512679984">
        <ele>17.4</ele>
        <time>2018-04-14T10:16:28Z</time>
      </trkpt>
      <trkpt lat="59.450416040021" lon="17.986433973943">
        <ele>17.4</ele>
        <time>2018-04-14T10:16:33Z</time>
      </trkpt>
      <trkpt lat="59.450605135685" lon="17.98624814722">
        <ele>16.4</ele>
        <time>2018-04-14T10:16:38Z</time>
      </trkpt>
      <trkpt lat="59.450766822536" lon="17.986042874489">
        <ele>15.8</ele>
        <time>2018-04-14T10:16:44Z</time>
      </trkpt>
      <trkpt lat="59.450838655419" lon="17.985869452978">
        <ele>15.4</ele>
        <time>2018-04-14T10:16:48Z</time>
      </trkpt>
      <trkpt lat="59.450958516589" lon="17.985555383185">
        <ele>15.8</ele>
        <time>2018-04-14T10:16:55Z</time>
      </trkpt>
      <trkpt lat="59.45105733919" lon="17.985204684489">
        <ele>16.4</ele>
        <time>2018-04-14T10:17:03Z</time>
      </trkpt>
      <trkpt lat="59.451089693324" lon="17.98511659072">
        <ele>16.6</ele>
        <time>2018-04-14T10:17:05Z</time>
      </trkpt>
      <trkpt lat="59.451194886169" lon="17.984760695246">
        <ele>17.2</ele>
        <time>2018-04-14T10:17:12Z</time>
      </trkpt>
      <trkpt lat="59.451276777332" lon="17.984398597166">
        <ele>16.8</ele>
        <time>2018-04-14T10:17:18Z</time>
      </trkpt>
      <trkpt lat="59.451325727628" lon="17.98404286933">
        <ele>16</ele>
        <time>2018-04-14T10:17:25Z</time>
      </trkpt>
      <trkpt lat="59.451381467263" lon="17.983667611667">
        <ele>16.4</ele>
        <time>2018-04-14T10:17:34Z</time>
      </trkpt>
      <trkpt lat="59.451422119478" lon="17.983284726475">
        <ele>16.4</ele>
        <time>2018-04-14T10:17:41Z</time>
      </trkpt>
      <trkpt lat="59.451558744448" lon="17.983050620008">
        <ele>15.8</ele>
        <time>2018-04-14T10:17:51Z</time>
      </trkpt>
      <trkpt lat="59.451735853995" lon="17.982976440193">
        <ele>16</ele>
        <time>2018-04-14T10:17:58Z</time>
      </trkpt>
      <trkpt lat="59.451932744826" lon="17.982881557085">
        <ele>15.8</ele>
        <time>2018-04-14T10:18:05Z</time>
      </trkpt>
      <trkpt lat="59.452024861907" lon="17.982849873503">
        <ele>15.6</ele>
        <time>2018-04-14T10:18:08Z</time>
      </trkpt>
      <trkpt lat="59.452200462712" lon="17.982700759502">
        <ele>15.6</ele>
        <time>2018-04-14T10:18:15Z</time>
      </trkpt>
      <trkpt lat="59.452387714358" lon="17.982510406553">
        <ele>16.6</ele>
        <time>2018-04-14T10:18:23Z</time>
      </trkpt>
      <trkpt lat="59.452433730989" lon="17.982444105724">
        <ele>17.6</ele>
        <time>2018-04-14T10:18:26Z</time>
      </trkpt>
      <trkpt lat="59.452442364346" lon="17.982132718139">
        <ele>18.6</ele>
        <time>2018-04-14T10:18:36Z</time>
      </trkpt>
      <trkpt lat="59.452451668255" lon="17.982087120603">
        <ele>18.6</ele>
        <time>2018-04-14T10:18:38Z</time>
      </trkpt>
      <trkpt lat="59.452426522555" lon="17.981932558367">
        <ele>19.4</ele>
        <time>2018-04-14T10:18:44Z</time>
      </trkpt>
      <trkpt lat="59.452421409596" lon="17.981858210914">
        <ele>19.8</ele>
        <time>2018-04-14T10:18:46Z</time>
      </trkpt>
      <trkpt lat="59.452400790122" lon="17.981577249626">
        <ele>20.8</ele>
        <time>2018-04-14T10:18:51Z</time>
      </trkpt>
      <trkpt lat="59.452315378561" lon="17.980937291561">
        <ele>21.4</ele>
        <time>2018-04-14T10:19:00Z</time>
      </trkpt>
      <trkpt lat="59.452189985337" lon="17.980646355812">
        <ele>21.4</ele>
        <time>2018-04-14T10:19:06Z</time>
      </trkpt>
      <trkpt lat="59.452095688962" lon="17.980458098338">
        <ele>22</ele>
        <time>2018-04-14T10:19:12Z</time>
      </trkpt>
      <trkpt lat="59.452005248261" lon="17.980326921603">
        <ele>23</ele>
        <time>2018-04-14T10:19:17Z</time>
      </trkpt>
      <trkpt lat="59.451951185006" lon="17.980233714875">
        <ele>24.4</ele>
        <time>2018-04-14T10:19:21Z</time>
      </trkpt>
      <trkpt lat="59.451830904741" lon="17.980057192061">
        <ele>25.6</ele>
        <time>2018-04-14T10:19:27Z</time>
      </trkpt>
      <trkpt lat="59.451731998321" lon="17.97989382883">
        <ele>26.8</ele>
        <time>2018-04-14T10:19:33Z</time>
      </trkpt>
      <trkpt lat="59.451714228693" lon="17.979858876307">
        <ele>27</ele>
        <time>2018-04-14T10:19:34Z</time>
      </trkpt>
      <trkpt lat="59.45162898477" lon="17.979674977421">
        <ele>27.4</ele>
        <time>2018-04-14T10:19:38Z</time>
      </trkpt>
      <trkpt lat="59.451534436938" lon="17.979328804951">
        <ele>27.6</ele>
        <time>2018-04-14T10:19:45Z</time>
      </trkpt>
      <trkpt lat="59.451506441392" lon="17.979010041294">
        <ele>27.8</ele>
        <time>2018-04-14T10:19:52Z</time>
      </trkpt>
      <trkpt lat="59.451522283183" lon="17.978941980266">
        <ele>27.8</ele>
        <time>2018-04-14T10:19:54Z</time>
      </trkpt>
      <trkpt lat="59.451530581264" lon="17.978895041626">
        <ele>27.8</ele>
        <time>2018-04-14T10:19:56Z</time>
      </trkpt>
      <trkpt lat="59.451545668684" lon="17.978891185952">
        <ele>28</ele>
        <time>2018-04-14T10:19:58Z</time>
      </trkpt>
      <trkpt lat="59.451600653948" lon="17.978871404668">
        <ele>28.2</ele>
        <time>2018-04-14T10:20:04Z</time>
      </trkpt>
      <trkpt lat="59.45163652848" lon="17.978861597845">
        <ele>28.6</ele>
        <time>2018-04-14T10:20:07Z</time>
      </trkpt>
      <trkpt lat="59.451666116587" lon="17.978846258968">
        <ele>28.8</ele>
        <time>2018-04-14T10:20:09Z</time>
      </trkpt>
      <trkpt lat="59.451766615568" lon="17.9787899326">
        <ele>30.2</ele>
        <time>2018-04-14T10:20:16Z</time>
      </trkpt>
      <trkpt lat="59.451820427366" lon="17.978785071098">
        <ele>31.6</ele>
        <time>2018-04-14T10:20:19Z</time>
      </trkpt>
      <trkpt lat="59.451930649351" lon="17.978770738049">
        <ele>32.6</ele>
        <time>2018-04-14T10:20:24Z</time>
      </trkpt>
      <trkpt lat="59.452111279296" lon="17.978714830776">
        <ele>32</ele>
        <time>2018-04-14T10:20:32Z</time>
      </trkpt>
      <trkpt lat="59.452218064702" lon="17.978684069203">
        <ele>31.6</ele>
        <time>2018-04-14T10:20:35Z</time>
      </trkpt>
      <trkpt lat="59.452423840347" lon="17.978612655415">
        <ele>31</ele>
        <time>2018-04-14T10:20:41Z</time>
      </trkpt>
      <trkpt lat="59.45259960879" lon="17.978525986569">
        <ele>31.2</ele>
        <time>2018-04-14T10:20:48Z</time>
      </trkpt>
      <trkpt lat="59.452778813812" lon="17.978374022722">
        <ele>31.8</ele>
        <time>2018-04-14T10:20:55Z</time>
      </trkpt>
      <trkpt lat="59.45292817927" lon="17.978222645608">
        <ele>32.8</ele>
        <time>2018-04-14T10:21:01Z</time>
      </trkpt>
      <trkpt lat="59.453090955768" lon="17.978056013436">
        <ele>33.8</ele>
        <time>2018-04-14T10:21:08Z</time>
      </trkpt>
      <trkpt lat="59.453173601302" lon="17.97794838984">
        <ele>35</ele>
        <time>2018-04-14T10:21:12Z</time>
      </trkpt>
      <trkpt lat="59.453317518525" lon="17.977693831537">
        <ele>35.2</ele>
        <time>2018-04-14T10:21:19Z</time>
      </trkpt>
      <trkpt lat="59.453487671095" lon="17.977553937626">
        <ele>35.2</ele>
        <time>2018-04-14T10:21:26Z</time>
      </trkpt>
      <trkpt lat="59.453671150886" lon="17.97750582552">
        <ele>34.8</ele>
        <time>2018-04-14T10:21:32Z</time>
      </trkpt>
      <trkpt lat="59.453841135818" lon="17.977408344023">
        <ele>34</ele>
        <time>2018-04-14T10:21:37Z</time>
      </trkpt>
      <trkpt lat="59.454027130179" lon="17.977237688539">
        <ele>32.8</ele>
        <time>2018-04-14T10:21:43Z</time>
      </trkpt>
      <trkpt lat="59.454103489288" lon="17.977118833197">
        <ele>31.6</ele>
        <time>2018-04-14T10:21:46Z</time>
      </trkpt>
      <trkpt lat="59.454170795945" lon="17.976973239594">
        <ele>30.6</ele>
        <time>2018-04-14T10:21:49Z</time>
      </trkpt>
      <trkpt lat="59.454252603289" lon="17.976787412871">
        <ele>29.4</ele>
        <time>2018-04-14T10:21:53Z</time>
      </trkpt>
      <trkpt lat="59.454375565762" lon="17.976489352507">
        <ele>28.4</ele>
        <time>2018-04-14T10:22:00Z</time>
      </trkpt>
      <trkpt lat="59.454393251571" lon="17.976450879586">
        <ele>28.4</ele>
        <time>2018-04-14T10:22:01Z</time>
      </trkpt>
      <trkpt lat="59.45454085683" lon="17.976238901335">
        <ele>28</ele>
        <time>2018-04-14T10:22:08Z</time>
      </trkpt>
      <trkpt lat="59.454636745766" lon="17.976125494228">
        <ele>27.2</ele>
        <time>2018-04-14T10:22:13Z</time>
      </trkpt>
      <trkpt lat="59.454748811769" lon="17.975875126875">
        <ele>26</ele>
        <time>2018-04-14T10:22:18Z</time>
      </trkpt>
      <trkpt lat="59.454814693503" lon="17.975729365634">
        <ele>25</ele>
        <time>2018-04-14T10:22:21Z</time>
      </trkpt>
      <trkpt lat="59.454920389262" lon="17.975500707402">
        <ele>23.6</ele>
        <time>2018-04-14T10:22:25Z</time>
      </trkpt>
      <trkpt lat="59.454985348987" lon="17.975320077457">
        <ele>22.2</ele>
        <time>2018-04-14T10:22:28Z</time>
      </trkpt>
      <trkpt lat="59.455015104732" lon="17.975200300106">
        <ele>20.8</ele>
        <time>2018-04-14T10:22:30Z</time>
      </trkpt>
      <trkpt lat="59.455049721979" lon="17.97506333986">
        <ele>19.8</ele>
        <time>2018-04-14T10:22:33Z</time>
      </trkpt>
      <trkpt lat="59.455081573199" lon="17.974948256373">
        <ele>18.6</ele>
        <time>2018-04-14T10:22:36Z</time>
      </trkpt>
      <trkpt lat="59.455145778553" lon="17.97481020648">
        <ele>17.6</ele>
        <time>2018-04-14T10:22:40Z</time>
      </trkpt>
      <trkpt lat="59.455203278387" lon="17.974634689494">
        <ele>17</ele>
        <time>2018-04-14T10:22:44Z</time>
      </trkpt>
      <trkpt lat="59.455237560358" lon="17.974485491674">
        <ele>16.4</ele>
        <time>2018-04-14T10:22:47Z</time>
      </trkpt>
      <trkpt lat="59.455275027451" lon="17.974114089685">
        <ele>16.4</ele>
        <time>2018-04-14T10:22:55Z</time>
      </trkpt>
      <trkpt lat="59.455355912786" lon="17.973751404872">
        <ele>16.2</ele>
        <time>2018-04-14T10:23:03Z</time>
      </trkpt>
      <trkpt lat="59.455449203333" lon="17.973410848275">
        <ele>16.4</ele>
        <time>2018-04-14T10:23:10Z</time>
      </trkpt>
      <trkpt lat="59.45554500845" lon="17.973102729631">
        <ele>16.6</ele>
        <time>2018-04-14T10:23:16Z</time>
      </trkpt>
      <trkpt lat="59.455500752018" lon="17.972750606012">
        <ele>16.2</ele>
        <time>2018-04-14T10:23:22Z</time>
      </trkpt>
      <trkpt lat="59.455406036548" lon="17.972422370808">
        <ele>16</ele>
        <time>2018-04-14T10:23:28Z</time>
      </trkpt>
      <trkpt lat="59.455353733492" lon="17.972072091207">
        <ele>16.4</ele>
        <time>2018-04-14T10:23:34Z</time>
      </trkpt>
      <trkpt lat="59.455318948607" lon="17.971667664532">
        <ele>16.4</ele>
        <time>2018-04-14T10:23:41Z</time>
      </trkpt>
      <trkpt lat="59.455356667157" lon="17.971314786542">
        <ele>16.6</ele>
        <time>2018-04-14T10:23:48Z</time>
      </trkpt>
      <trkpt lat="59.45538072321" lon="17.970937181947">
        <ele>17</ele>
        <time>2018-04-14T10:23:55Z</time>
      </trkpt>
      <trkpt lat="59.455360858107" lon="17.97072235385">
        <ele>17.6</ele>
        <time>2018-04-14T10:23:59Z</time>
      </trkpt>
      <trkpt lat="59.455319200064" lon="17.970489588487">
        <ele>18.8</ele>
        <time>2018-04-14T10:24:04Z</time>
      </trkpt>
      <trkpt lat="59.455265723542" lon="17.970320106469">
        <ele>19.6</ele>
        <time>2018-04-14T10:24:08Z</time>
      </trkpt>
      <trkpt lat="59.455247451" lon="17.970279621892">
        <ele>19.8</ele>
        <time>2018-04-14T10:24:09Z</time>
      </trkpt>
      <trkpt lat="59.455204284215" lon="17.970203933335">
        <ele>21.4</ele>
        <time>2018-04-14T10:24:12Z</time>
      </trkpt>
      <trkpt lat="59.455162290896" lon="17.970184152051">
        <ele>22.6</ele>
        <time>2018-04-14T10:24:15Z</time>
      </trkpt>
      <trkpt lat="59.455148041666" lon="17.970194042693">
        <ele>23</ele>
        <time>2018-04-14T10:24:16Z</time>
      </trkpt>
      <trkpt lat="59.455109484926" lon="17.970175602513">
        <ele>23.6</ele>
        <time>2018-04-14T10:24:18Z</time>
      </trkpt>
      <trkpt lat="59.455043267916" lon="17.970190773752">
        <ele>24.8</ele>
        <time>2018-04-14T10:24:22Z</time>
      </trkpt>
      <trkpt lat="59.454932040103" lon="17.970246597206">
        <ele>25.8</ele>
        <time>2018-04-14T10:24:30Z</time>
      </trkpt>
      <trkpt lat="59.454920137805" lon="17.970265205024">
        <ele>26</ele>
        <time>2018-04-14T10:24:31Z</time>
      </trkpt>
      <trkpt lat="59.454892812811" lon="17.97031080256">
        <ele>26.8</ele>
        <time>2018-04-14T10:24:33Z</time>
      </trkpt>
      <trkpt lat="59.454862973247" lon="17.970348772567">
        <ele>27.2</ele>
        <time>2018-04-14T10:24:35Z</time>
      </trkpt>
      <trkpt lat="59.454816956616" lon="17.970425047857">
        <ele>27.4</ele>
        <time>2018-04-14T10:24:37Z</time>
      </trkpt>
      <trkpt lat="59.454761971352" lon="17.97048598427">
        <ele>27.6</ele>
        <time>2018-04-14T10:24:39Z</time>
      </trkpt>
      <trkpt lat="59.454627777133" lon="17.970645575646">
        <ele>28.6</ele>
        <time>2018-04-14T10:24:44Z</time>
      </trkpt>
      <trkpt lat="59.454540521554" lon="17.970670721346">
        <ele>29.8</ele>
        <time>2018-04-14T10:24:49Z</time>
      </trkpt>
      <trkpt lat="59.454479417503" lon="17.970659741057">
        <ele>30.6</ele>
        <time>2018-04-14T10:24:52Z</time>
      </trkpt>
      <trkpt lat="59.454460977323" lon="17.970656388297">
        <ele>30.8</ele>
        <time>2018-04-14T10:24:53Z</time>
      </trkpt>
      <trkpt lat="59.454437424184" lon="17.970653538451">
        <ele>31</ele>
        <time>2018-04-14T10:24:54Z</time>
      </trkpt>
      <trkpt lat="59.45439836453" lon="17.970624788534">
        <ele>32</ele>
        <time>2018-04-14T10:24:57Z</time>
      </trkpt>
      <trkpt lat="59.454379505255" lon="17.970625794362">
        <ele>32.2</ele>
        <time>2018-04-14T10:24:58Z</time>
      </trkpt>
      <trkpt lat="59.454261823379" lon="17.970644318361">
        <ele>32.4</ele>
        <time>2018-04-14T10:25:36Z</time>
      </trkpt>
      <trkpt lat="59.454195606369" lon="17.970575083867">
        <ele>32.2</ele>
        <time>2018-04-14T10:25:40Z</time>
      </trkpt>
      <trkpt lat="59.454155457068" lon="17.970523870458">
        <ele>33</ele>
        <time>2018-04-14T10:25:42Z</time>
      </trkpt>
      <trkpt lat="59.454120756002" lon="17.970431921015">
        <ele>34.2</ele>
        <time>2018-04-14T10:25:45Z</time>
      </trkpt>
      <trkpt lat="59.454100052709" lon="17.970230001044">
        <ele>35.4</ele>
        <time>2018-04-14T10:25:49Z</time>
      </trkpt>
      <trkpt lat="59.454092592818" lon="17.970052556221">
        <ele>36.6</ele>
        <time>2018-04-14T10:25:53Z</time>
      </trkpt>
      <trkpt lat="59.454105668582" lon="17.96990847136">
        <ele>37.8</ele>
        <time>2018-04-14T10:25:56Z</time>
      </trkpt>
      <trkpt lat="59.454114385758" lon="17.969754328219">
        <ele>39</ele>
        <time>2018-04-14T10:25:59Z</time>
      </trkpt>
      <trkpt lat="59.454118492889" lon="17.969663216966">
        <ele>40.2</ele>
        <time>2018-04-14T10:26:01Z</time>
      </trkpt>
      <trkpt lat="59.454103154012" lon="17.969583505097">
        <ele>41.4</ele>
        <time>2018-04-14T10:26:03Z</time>
      </trkpt>
      <trkpt lat="59.454069710231" lon="17.969507062169">
        <ele>42.4</ele>
        <time>2018-04-14T10:26:05Z</time>
      </trkpt>
      <trkpt lat="59.454052778793" lon="17.969465990859">
        <ele>42.6</ele>
        <time>2018-04-14T10:26:06Z</time>
      </trkpt>
      <trkpt lat="59.453919338945" lon="17.969185364847">
        <ele>42.8</ele>
        <time>2018-04-14T10:26:14Z</time>
      </trkpt>
      <trkpt lat="59.453738206086" lon="17.969046309126">
        <ele>41.4</ele>
        <time>2018-04-14T10:26:21Z</time>
      </trkpt>
      <trkpt lat="59.453710294359" lon="17.969021917797">
        <ele>41.2</ele>
        <time>2018-04-14T10:26:22Z</time>
      </trkpt>
      <trkpt lat="59.453623960789" lon="17.968949414362">
        <ele>40</ele>
        <time>2018-04-14T10:26:25Z</time>
      </trkpt>
      <trkpt lat="59.453506614189" lon="17.968829888468">
        <ele>38.6</ele>
        <time>2018-04-14T10:26:29Z</time>
      </trkpt>
      <trkpt lat="59.453432350555" lon="17.96879619323">
        <ele>37.2</ele>
        <time>2018-04-14T10:26:31Z</time>
      </trkpt>
      <trkpt lat="59.453370408314" lon="17.968774316471">
        <ele>36</ele>
        <time>2018-04-14T10:26:33Z</time>
      </trkpt>
      <trkpt lat="59.453312992299" lon="17.968781608724">
        <ele>35.4</ele>
        <time>2018-04-14T10:26:35Z</time>
      </trkpt>
      <trkpt lat="59.453281224898" lon="17.968789068615">
        <ele>34.8</ele>
        <time>2018-04-14T10:26:36Z</time>
      </trkpt>
      <trkpt lat="59.453200339563" lon="17.968762497992">
        <ele>33.4</ele>
        <time>2018-04-14T10:26:39Z</time>
      </trkpt>
      <trkpt lat="59.453156669864" lon="17.968735256817">
        <ele>32.4</ele>
        <time>2018-04-14T10:26:41Z</time>
      </trkpt>
      <trkpt lat="59.453036641056" lon="17.968723857433">
        <ele>31.2</ele>
        <time>2018-04-14T10:26:45Z</time>
      </trkpt>
      <trkpt lat="59.452894400213" lon="17.968800719456">
        <ele>30.4</ele>
        <time>2018-04-14T10:26:50Z</time>
      </trkpt>
      <trkpt lat="59.452820639493" lon="17.968888561768">
        <ele>30</ele>
        <time>2018-04-14T10:26:52Z</time>
      </trkpt>
      <trkpt lat="59.452635734779" lon="17.969043794556">
        <ele>29.4</ele>
        <time>2018-04-14T10:26:57Z</time>
      </trkpt>
      <trkpt lat="59.452555268539" lon="17.969166505572">
        <ele>29</ele>
        <time>2018-04-14T10:27:00Z</time>
      </trkpt>
      <trkpt lat="59.452484273846" lon="17.969257700644">
        <ele>27.8</ele>
        <time>2018-04-14T10:27:03Z</time>
      </trkpt>
      <trkpt lat="59.45235318093" lon="17.969356355607">
        <ele>26.6</ele>
        <time>2018-04-14T10:27:08Z</time>
      </trkpt>
      <trkpt lat="59.452331136533" lon="17.969365072783">
        <ele>26.4</ele>
        <time>2018-04-14T10:27:09Z</time>
      </trkpt>
      <trkpt lat="59.452128378372" lon="17.969443778824">
        <ele>25.6</ele>
        <time>2018-04-14T10:27:15Z</time>
      </trkpt>
      <trkpt lat="59.452097449161" lon="17.969475462406">
        <ele>25.6</ele>
        <time>2018-04-14T10:27:16Z</time>
      </trkpt>
      <trkpt lat="59.451901564158" lon="17.969510834024">
        <ele>25.8</ele>
        <time>2018-04-14T10:27:20Z</time>
      </trkpt>
      <trkpt lat="59.451701152929" lon="17.969572692446">
        <ele>25.2</ele>
        <time>2018-04-14T10:27:25Z</time>
      </trkpt>
      <trkpt lat="59.451531084178" lon="17.969647375175">
        <ele>24.8</ele>
        <time>2018-04-14T10:27:30Z</time>
      </trkpt>
    </trkseg>
  </trk>
</gpx>